sensor_id;sensor_type;location;lat;lon;timestamp;temperature;humidity
58513;DHT22;44302;47.914;10.642;2022-12-18T08:46:58;-5.90;99.90
58513;DHT22;44302;47.914;10.642;2022-12-18T08:49:23;-5.90;99.90
58513;DHT22;44302;47.914;10.642;2022-12-18T08:51:54;-5.90;99.90
58513;DHT22;44302;47.914;10.642;2022-12-18T08:54:20;-5.70;99.90
58513;DHT22;44302;47.914;10.642;2022-12-18T08:56:46;-5.60;99.90
58513;DHT22;44302;47.914;10.642;2022-12-18T08:59:11;-5.60;99.90
58513;DHT22;44302;47.914;10.642;2022-12-18T09:01:37;-5.50;99.90
58513;DHT22;44302;47.914;10.642;2022-12-18T09:04:03;-5.50;99.90
58513;DHT22;44302;47.914;10.642;2022-12-18T09:06:28;-5.80;99.90
58513;DHT22;44302;47.914;10.642;2022-12-18T09:08:54;-5.70;99.90
58513;DHT22;44302;47.914;10.642;2022-12-18T09:11:25;-5.40;99.90
58513;DHT22;44302;47.914;10.642;2022-12-18T09:13:51;-5.20;99.90
58513;DHT22;44302;47.914;10.642;2022-12-18T09:16:17;-5.20;99.90
58513;DHT22;44302;47.914;10.642;2022-12-18T09:18:43;-5.20;99.90
58513;DHT22;44302;47.914;10.642;2022-12-18T09:21:14;-5.10;99.90
58513;DHT22;44302;47.914;10.642;2022-12-18T09:23:41;-5.10;99.90
58513;DHT22;44302;47.914;10.642;2022-12-18T09:26:07;-5.00;99.90
58513;DHT22;44302;47.914;10.642;2022-12-18T09:28:33;-4.50;99.90
58513;DHT22;44302;47.914;10.642;2022-12-18T09:30:59;-4.30;99.90
58513;DHT22;44302;47.914;10.642;2022-12-18T09:33:28;-4.20;99.90
58513;DHT22;44302;47.914;10.642;2022-12-18T09:35:54;-4.20;99.90
58513;DHT22;44302;47.914;10.642;2022-12-18T09:38:20;-4.30;99.90
58513;DHT22;44302;47.914;10.642;2022-12-18T09:40:49;-4.30;99.90
58513;DHT22;44302;47.914;10.642;2022-12-18T09:43:21;-4.40;99.90
58513;DHT22;44302;47.914;10.642;2022-12-18T09:45:53;-4.40;99.90
58513;DHT22;44302;47.914;10.642;2022-12-18T09:48:26;-4.70;99.90
58513;DHT22;44302;47.914;10.642;2022-12-18T09:50:57;-4.70;99.90
58513;DHT22;44302;47.914;10.642;2022-12-18T09:53:27;-4.60;99.90
58513;DHT22;44302;47.914;10.642;2022-12-18T09:55:54;-4.50;99.90
58513;DHT22;44302;47.914;10.642;2022-12-18T09:58:29;-4.20;99.90
58513;DHT22;44302;47.914;10.642;2022-12-18T10:00:56;-4.00;99.90
58513;DHT22;44302;47.914;10.642;2022-12-18T10:03:21;-3.50;99.90
58513;DHT22;44302;47.914;10.642;2022-12-18T10:06:13;-3.60;99.90
58513;DHT22;44302;47.914;10.642;2022-12-18T10:09:00;-3.80;99.90
58513;DHT22;44302;47.914;10.642;2022-12-18T10:19:47;-4.40;99.90
58513;DHT22;44302;47.914;10.642;2022-12-18T10:28:11;-3.90;99.90
58513;DHT22;44302;47.914;10.642;2022-12-18T10:30:38;-3.60;99.90
58513;DHT22;44302;47.914;10.642;2022-12-18T10:33:05;-3.10;99.90
58513;DHT22;44302;47.914;10.642;2022-12-18T10:35:30;-2.60;99.90
58513;DHT22;44302;47.914;10.642;2022-12-18T10:43:31;-2.80;99.90
58513;DHT22;44302;47.914;10.642;2022-12-18T10:46:04;-2.40;99.90
58513;DHT22;44302;47.914;10.642;2022-12-18T10:48:31;-2.00;99.90
58513;DHT22;44302;47.914;10.642;2022-12-18T10:50:59;-1.70;99.90
58513;DHT22;44302;47.914;10.642;2022-12-18T10:53:30;-1.10;99.90
58513;DHT22;44302;47.914;10.642;2022-12-18T10:56:02;-0.50;99.90
58513;DHT22;44302;47.914;10.642;2022-12-18T10:58:36;-0.40;99.90
58513;DHT22;44302;47.914;10.642;2022-12-18T11:01:20;-0.20;99.90
58513;DHT22;44302;47.914;10.642;2022-12-18T11:06:20;-0.10;99.90
58513;DHT22;44302;47.914;10.642;2022-12-18T11:09:24;0.10;99.90
58513;DHT22;44302;47.914;10.642;2022-12-18T11:11:53;0.40;99.90
58513;DHT22;44302;47.914;10.642;2022-12-18T11:14:34;0.80;99.90
58513;DHT22;44302;47.914;10.642;2022-12-18T11:17:18;1.00;99.90
58513;DHT22;44302;47.914;10.642;2022-12-18T11:19:44;0.90;99.90
58513;DHT22;44302;47.914;10.642;2022-12-18T11:22:21;0.60;99.90
58513;DHT22;44302;47.914;10.642;2022-12-18T11:25:06;0.40;99.90
58513;DHT22;44302;47.914;10.642;2022-12-18T11:27:53;0.00;99.90
58513;DHT22;44302;47.914;10.642;2022-12-18T11:35:47;-0.80;99.90
58513;DHT22;44302;47.914;10.642;2022-12-18T11:38:24;-0.90;99.90
58513;DHT22;44302;47.914;10.642;2022-12-18T11:43:42;-0.40;99.90
58513;DHT22;44302;47.914;10.642;2022-12-18T11:46:16;0.10;99.90
58513;DHT22;44302;47.914;10.642;2022-12-18T11:49:07;0.50;99.90
58513;DHT22;44302;47.914;10.642;2022-12-18T11:51:55;0.70;99.90
58513;DHT22;44302;47.914;10.642;2022-12-18T11:54:22;1.00;99.90
58513;DHT22;44302;47.914;10.642;2022-12-18T11:56:53;1.20;99.90
58513;DHT22;44302;47.914;10.642;2022-12-18T12:10:39;-2.60;99.90
58513;DHT22;44302;47.914;10.642;2022-12-18T12:16:03;-2.60;99.90
58513;DHT22;44302;47.914;10.642;2022-12-18T12:23:56;-2.60;99.90
58513;DHT22;44302;47.914;10.642;2022-12-18T12:26:31;-2.60;99.90
58513;DHT22;44302;47.914;10.642;2022-12-18T12:34:53;-2.30;99.90
58513;DHT22;44302;47.914;10.642;2022-12-18T12:40:18;-2.20;99.90
58513;DHT22;44302;47.914;10.642;2022-12-18T12:46:14;-2.60;99.90
58513;DHT22;44302;47.914;10.642;2022-12-18T12:48:56;-2.60;99.90
58513;DHT22;44302;47.914;10.642;2022-12-18T12:51:35;-2.70;99.90
58513;DHT22;44302;47.914;10.642;2022-12-18T12:54:05;-2.90;99.90
58513;DHT22;44302;47.914;10.642;2022-12-18T12:59:19;-3.10;99.90
58513;DHT22;44302;47.914;10.642;2022-12-18T13:01:55;-3.10;99.90
58513;DHT22;44302;47.914;10.642;2022-12-18T13:07:10;-3.50;99.90
58513;DHT22;44302;47.914;10.642;2022-12-18T13:18:25;-4.00;99.90
58513;DHT22;44302;47.914;10.642;2022-12-18T13:21:20;-3.90;99.90
58513;DHT22;44302;47.914;10.642;2022-12-18T13:23:47;-3.80;99.90
58513;DHT22;44302;47.914;10.642;2022-12-18T13:34:23;-3.60;99.90
58513;DHT22;44302;47.914;10.642;2022-12-18T13:36:51;-3.60;99.90
58513;DHT22;44302;47.914;10.642;2022-12-18T13:39:21;-3.70;99.90
58513;DHT22;44302;47.914;10.642;2022-12-18T13:41:50;-3.90;99.90
58513;DHT22;44302;47.914;10.642;2022-12-18T13:44:40;-3.90;99.90
58513;DHT22;44302;47.914;10.642;2022-12-18T13:47:36;-3.90;99.90
58513;DHT22;44302;47.914;10.642;2022-12-18T13:50:23;-3.90;99.90
58513;DHT22;44302;47.914;10.642;2022-12-18T13:52:53;-4.10;99.90
58513;DHT22;44302;47.914;10.642;2022-12-18T13:55:20;-4.10;99.90
58513;DHT22;44302;47.914;10.642;2022-12-18T13:57:46;-4.30;99.90
58513;DHT22;44302;47.914;10.642;2022-12-18T14:00:26;-3.70;99.90
58513;DHT22;44302;47.914;10.642;2022-12-18T14:02:53;-4.40;99.90
58513;DHT22;44302;47.914;10.642;2022-12-18T14:05:33;-4.50;99.90
58513;DHT22;44302;47.914;10.642;2022-12-18T14:08:13;-4.60;99.90
58513;DHT22;44302;47.914;10.642;2022-12-18T14:10:47;-4.70;99.90
58513;DHT22;44302;47.914;10.642;2022-12-18T14:13:31;-4.80;99.90
58513;DHT22;44302;47.914;10.642;2022-12-18T14:15:57;-4.90;99.90
58513;DHT22;44302;47.914;10.642;2022-12-18T14:18:41;-5.00;99.90
58513;DHT22;44302;47.914;10.642;2022-12-18T14:21:22;-5.10;99.90
58513;DHT22;44302;47.914;10.642;2022-12-18T14:23:48;-5.10;99.90
58513;DHT22;44302;47.914;10.642;2022-12-18T14:26:27;-5.20;99.90
58513;DHT22;44302;47.914;10.642;2022-12-18T14:28:58;-5.20;99.90
58513;DHT22;44302;47.914;10.642;2022-12-18T14:31:28;-5.20;99.90
58513;DHT22;44302;47.914;10.642;2022-12-18T14:33:55;-5.20;99.90
58513;DHT22;44302;47.914;10.642;2022-12-18T14:36:28;-5.10;99.90
58513;DHT22;44302;47.914;10.642;2022-12-18T14:38:56;-5.10;99.90
58513;DHT22;44302;47.914;10.642;2022-12-18T14:41:23;-5.00;99.90
58513;DHT22;44302;47.914;10.642;2022-12-18T14:43:51;-5.10;99.90
58513;DHT22;44302;47.914;10.642;2022-12-18T14:46:29;-5.20;99.90
58513;DHT22;44302;47.914;10.642;2022-12-18T14:48:56;-5.30;99.90
58513;DHT22;44302;47.914;10.642;2022-12-18T14:51:24;-5.20;99.90
58513;DHT22;44302;47.914;10.642;2022-12-18T14:54:02;-5.20;99.90
58513;DHT22;44302;47.914;10.642;2022-12-18T14:56:33;-5.40;99.90
58513;DHT22;44302;47.914;10.642;2022-12-18T14:59:22;-5.40;99.90
58513;DHT22;44302;47.914;10.642;2022-12-18T15:02:26;-5.40;99.90
58513;DHT22;44302;47.914;10.642;2022-12-18T15:04:45;-5.30;99.90
58513;DHT22;44302;47.914;10.642;2022-12-18T15:07:12;-5.30;99.90
58513;DHT22;44302;47.914;10.642;2022-12-18T15:09:39;-5.40;99.90
58513;DHT22;44302;47.914;10.642;2022-12-18T15:12:15;-5.50;99.90
58513;DHT22;44302;47.914;10.642;2022-12-18T15:14:43;-5.50;99.90
58513;DHT22;44302;47.914;10.642;2022-12-18T15:17:18;-5.80;99.90
58513;DHT22;44302;47.914;10.642;2022-12-18T15:19:46;-5.90;99.90
58513;DHT22;44302;47.914;10.642;2022-12-18T15:22:27;-5.90;99.90
58513;DHT22;44302;47.914;10.642;2022-12-18T15:24:56;-6.00;99.90
58513;DHT22;44302;47.914;10.642;2022-12-18T15:27:27;-5.90;99.90
58513;DHT22;44302;47.914;10.642;2022-12-18T15:32:36;-5.90;99.90
58513;DHT22;44302;47.914;10.642;2022-12-18T15:37:34;-6.00;99.90
58513;DHT22;44302;47.914;10.642;2022-12-18T15:40:00;-6.00;99.90
58513;DHT22;44302;47.914;10.642;2022-12-18T15:42:28;-6.00;99.90
58513;DHT22;44302;47.914;10.642;2022-12-18T15:45:29;-6.00;99.90
58513;DHT22;44302;47.914;10.642;2022-12-18T15:47:55;-6.00;99.90
58513;DHT22;44302;47.914;10.642;2022-12-18T15:50:20;-6.00;99.90
58513;DHT22;44302;47.914;10.642;2022-12-18T15:52:48;-6.00;99.90
58513;DHT22;44302;47.914;10.642;2022-12-18T15:55:18;-6.10;99.90
58513;DHT22;44302;47.914;10.642;2022-12-18T15:58:07;-6.10;99.90
58513;DHT22;44302;47.914;10.642;2022-12-18T16:00:35;-6.30;99.90
58513;DHT22;44302;47.914;10.642;2022-12-18T16:03:03;-6.30;99.90
58513;DHT22;44302;47.914;10.642;2022-12-18T16:05:29;-6.30;99.90
58513;DHT22;44302;47.914;10.642;2022-12-18T16:07:56;-6.30;99.90
58513;DHT22;44302;47.914;10.642;2022-12-18T16:10:22;-6.40;99.90
58513;DHT22;44302;47.914;10.642;2022-12-18T16:12:49;-6.40;99.90
58513;DHT22;44302;47.914;10.642;2022-12-18T16:15:15;-6.40;99.90
58513;DHT22;44302;47.914;10.642;2022-12-18T16:17:45;-6.30;99.90
58513;DHT22;44302;47.914;10.642;2022-12-18T16:20:16;-6.30;99.90
58513;DHT22;44302;47.914;10.642;2022-12-18T16:22:43;-6.20;99.90
58513;DHT22;44302;47.914;10.642;2022-12-18T16:25:27;-6.20;99.90
58513;DHT22;44302;47.914;10.642;2022-12-18T16:27:54;-6.20;99.90
58513;DHT22;44302;47.914;10.642;2022-12-18T16:30:25;-6.20;99.90
58513;DHT22;44302;47.914;10.642;2022-12-18T16:32:54;-6.20;99.90
58513;DHT22;44302;47.914;10.642;2022-12-18T16:35:20;-6.20;99.90
58513;DHT22;44302;47.914;10.642;2022-12-18T16:37:46;-6.30;99.90
58513;DHT22;44302;47.914;10.642;2022-12-18T16:40:14;-6.40;99.90
58513;DHT22;44302;47.914;10.642;2022-12-18T16:42:42;-6.40;99.90
58513;DHT22;44302;47.914;10.642;2022-12-18T16:45:10;-6.50;99.90
58513;DHT22;44302;47.914;10.642;2022-12-18T16:47:38;-6.30;99.90
58513;DHT22;44302;47.914;10.642;2022-12-18T16:50:05;-6.30;99.90
58513;DHT22;44302;47.914;10.642;2022-12-18T16:52:31;-6.30;99.90
58513;DHT22;44302;47.914;10.642;2022-12-18T16:54:56;-6.30;99.90
58513;DHT22;44302;47.914;10.642;2022-12-18T16:57:22;-6.20;99.90
58513;DHT22;44302;47.914;10.642;2022-12-18T16:59:48;-6.20;99.90
58513;DHT22;44302;47.914;10.642;2022-12-18T17:02:18;-6.10;99.90
58513;DHT22;44302;47.914;10.642;2022-12-18T17:04:47;-6.10;99.90
58513;DHT22;44302;47.914;10.642;2022-12-18T17:07:13;-6.10;99.90
58513;DHT22;44302;47.914;10.642;2022-12-18T17:09:39;-6.00;99.90
58513;DHT22;44302;47.914;10.642;2022-12-18T17:12:05;-6.00;99.90
58513;DHT22;44302;47.914;10.642;2022-12-18T17:14:31;-6.00;99.90
58513;DHT22;44302;47.914;10.642;2022-12-18T17:16:57;-6.10;99.90
58513;DHT22;44302;47.914;10.642;2022-12-18T17:19:24;-6.10;99.90
58513;DHT22;44302;47.914;10.642;2022-12-18T17:21:50;-6.10;99.90
58513;DHT22;44302;47.914;10.642;2022-12-18T17:24:17;-6.10;99.90
58513;DHT22;44302;47.914;10.642;2022-12-18T17:26:43;-6.10;99.90
58513;DHT22;44302;47.914;10.642;2022-12-18T17:29:15;-6.00;99.90
58513;DHT22;44302;47.914;10.642;2022-12-18T17:31:41;-5.80;99.90
58513;DHT22;44302;47.914;10.642;2022-12-18T17:34:09;-6.00;99.90
58513;DHT22;44302;47.914;10.642;2022-12-18T17:36:35;-6.00;99.90
58513;DHT22;44302;47.914;10.642;2022-12-18T17:39:02;-6.00;99.90
58513;DHT22;44302;47.914;10.642;2022-12-18T17:41:29;-5.90;99.90
58513;DHT22;44302;47.914;10.642;2022-12-18T17:44:00;-5.90;99.90
58513;DHT22;44302;47.914;10.642;2022-12-18T17:46:26;-5.90;99.90
58513;DHT22;44302;47.914;10.642;2022-12-18T17:48:57;-5.90;99.90
58513;DHT22;44302;47.914;10.642;2022-12-18T17:51:23;-5.90;99.90
58513;DHT22;44302;47.914;10.642;2022-12-18T17:53:49;-5.80;99.90
58513;DHT22;44302;47.914;10.642;2022-12-18T17:56:16;-5.80;99.90
58513;DHT22;44302;47.914;10.642;2022-12-18T17:58:43;-5.70;99.90
58513;DHT22;44302;47.914;10.642;2022-12-18T18:01:13;-5.80;99.90
58513;DHT22;44302;47.914;10.642;2022-12-18T18:03:38;-5.80;99.90
58513;DHT22;44302;47.914;10.642;2022-12-18T18:06:05;-5.80;99.90
58513;DHT22;44302;47.914;10.642;2022-12-18T18:08:33;-5.80;99.90
